RJFY(METAR)
10/21 04:00
METAR RJFY 201900Z 04012KT 9999 FEW040 19/10 Q1020 RMK 2SC040 A3013=
戻る
トップページへ戻る
IMOC Co,.Ltd.